Dover, Tasmania

5:54 AM AEST on August 03, 2015 (GMT +1000)
Dover Esperance Bay | | Change Station
CLOSE
Current Station
Personal Weather Station
Location: Dover, TASMANIA
Elevation: 72 ft
Nearby Weather Stations

Elev 72 ft 43.33 °S, 147.00 °E | Updated 6 minutes ago

Light Snow Showers
Light Showers Snow
34.6 °F
Feels Like 31 °F
N
4.0
Wind Variable Wind from West
Gusts 11.0 mph

Today
High -- | Low -- °F
--% Chance of Precip.
Yesterday
High -- | Low -- °F
Precip. -- in
7:23 AM 5:13 PM
Waning Gibbous, 92% visible
Pressure 29.47 in
Visibility 6.2 miles
Clouds Few 700 ft
Scattered Clouds 1500 ft
Mostly Cloudy 2000 ft
Windchill 31 °F
Dew Point 31 °F
Humidity 88%
Rainfall 0.15 in
Snow Depth Not available.
UV 0 out of 12
Pollen Not available.
Air Quality Not available.
Flu Activity Not available.
SPECI YMHB 021938Z 30015KT 9999 4000SE -SHSN FEW007 SCT015 BKN020 02/M00 Q0998

More Conditions Fewer Conditions

Pressure 29.47 in
Visibility 6.2 miles
Clouds Few 700 ft
Scattered Clouds 1500 ft
Mostly Cloudy 2000 ft
Windchill 31 °F
Dew Point 31 °F
Humidity 88%
Rainfall 0.15 in
Snow Depth Not available.
UV 0 out of 12
Pollen Not available.
Air Quality Not available.
Flu Activity Not available.
SPECI YMHB 021938Z 30015KT 9999 4000SE -SHSN FEW007 SCT015 BKN020 02/M00 Q0998

More Conditions Fewer Conditions

10-Day Weather Forecast

×

Almanac

Astronomy

Aug. 03, 2015 Rise Set
Actual Time
Civil Twilight
Nautical Twilight
Astronomical Twilight
Moon
Length of Visible Light
Length of Day
Tomorrow will be .
, % of the Moon is Illuminated

Today's Extremes

Country Highs Country Lows

Community

WunderPhotos

Upload Photos

1,843,345 photos uploaded!

WunderBlogs® & News

Nearby

Air Quality

  Air Quality AQ Index Pollutant
Not available.

Snow Depth

Station Depth Elevation

Earthquake Activity

City Distance Mag. Time & Date
Minimum magnitude displayed is 2.5.

Coastal Water Temperatures

Place Temperature

Stations

Nearby Weather Stations

Station Location Temp. Windchill Dew Point Humidity Wind Precip. Elev Updated Type